Airfield :
LOGIN :

Register | Disclaimer

   EN    FR    IT 

 










Legend :    VFR   Marginal VFR   IFR   Intensive IFR   Very Intensive IFR
Visi :
Ceiling :
>= 8 km
>= 3000ft
5 to 8 km
1000 to 3000 ft
1500m to 5 km
500 to 1000 ft
800 to 1500m
200 to 500 ft
< 800m
< 200 ft
Symbols :   Thunderstorms  Fog  Heavy snow  Heavy precipitations  Wind > 20 kt
SIGMETs :     Misc.  Thunderstorms  Icing  Turbulence  Mountain Waves  Volcanic Ashes






- Airport Elevation : 364 ft


LFAQ - Albert Bray

CURRENT METAR :
  • 260500Z AUTO 16008KT 1600 BR NSC 02/02 Q1016

EXPIRED METARs :
  • 260430Z AUTO 15007KT 1500 1400 R27/2000U BR NSC 02/02 Q1016
  • 260400Z AUTO 14007KT 2100 BR NSC 02/02 Q1016
  • 260330Z AUTO 15007KT 2500 BR NSC 03/03 Q1016
  • 260300Z AUTO 15007KT 3000 BR NSC 03/03 Q1016
  • 260230Z AUTO 15007KT 3200 BR NSC 03/03 Q1016

Expired Forecast.



MET'MAP, your aeronautical weather chart ! - Copyright ORBIFLY December 2007 - Disclaimer

ORBIFLY MET'MAP TEAM :

Programming & Development : Alexandra Zaïnal
Concept & original design : Baudouin d'Aumeries
Assistance for programming : Marc-Olivier Méhu
Technical & hardware support : Manuel Goepfert

Contact : metmap@orbifly.com




SOURCES & CREDITS :

   NOAA